sensor_id;sensor_type;location;lat;lon;timestamp;P1;durP1;ratioP1;P2;durP2;ratioP2
72235;SDS011;60146;52.498;13.462;2022-08-30T00:01:32;2.50;;;1.97;;
72235;SDS011;60146;52.498;13.462;2022-08-30T00:03:58;2.43;;;1.83;;
72235;SDS011;60146;52.498;13.462;2022-08-30T00:06:25;2.10;;;1.70;;
72235;SDS011;60146;52.498;13.462;2022-08-30T00:08:52;2.80;;;1.90;;
72235;SDS011;60146;52.498;13.462;2022-08-30T00:11:23;2.50;;;1.90;;
72235;SDS011;60146;52.498;13.462;2022-08-30T00:13:51;3.80;;;2.17;;
72235;SDS011;60146;52.498;13.462;2022-08-30T00:16:18;3.30;;;2.30;;
72235;SDS011;60146;52.498;13.462;2022-08-30T00:18:46;2.97;;;2.07;;
72235;SDS011;60146;52.498;13.462;2022-08-30T00:21:11;2.90;;;2.27;;
72235;SDS011;60146;52.498;13.462;2022-08-30T00:23:37;3.53;;;2.27;;
72235;SDS011;60146;52.498;13.462;2022-08-30T00:26:03;2.80;;;2.17;;
72235;SDS011;60146;52.498;13.462;2022-08-30T00:28:30;4.53;;;2.17;;
72235;SDS011;60146;52.498;13.462;2022-08-30T00:30:57;4.27;;;2.30;;
72235;SDS011;60146;52.498;13.462;2022-08-30T00:33:23;4.57;;;2.67;;
72235;SDS011;60146;52.498;13.462;2022-08-30T00:35:49;3.40;;;2.33;;
72235;SDS011;60146;52.498;13.462;2022-08-30T00:38:14;3.70;;;2.50;;
72235;SDS011;60146;52.498;13.462;2022-08-30T00:40:41;3.60;;;2.50;;
72235;SDS011;60146;52.498;13.462;2022-08-30T00:43:09;5.17;;;2.70;;
72235;SDS011;60146;52.498;13.462;2022-08-30T00:45:42;3.53;;;2.50;;
72235;SDS011;60146;52.498;13.462;2022-08-30T00:48:07;3.67;;;2.23;;
72235;SDS011;60146;52.498;13.462;2022-08-30T00:50:35;3.57;;;2.40;;
72235;SDS011;60146;52.498;13.462;2022-08-30T00:53:03;4.43;;;2.85;;
72235;SDS011;60146;52.498;13.462;2022-08-30T00:55:31;4.60;;;2.83;;
72235;SDS011;60146;52.498;13.462;2022-08-30T00:57:57;4.17;;;2.90;;
72235;SDS011;60146;52.498;13.462;2022-08-30T01:00:25;6.23;;;3.13;;
72235;SDS011;60146;52.498;13.462;2022-08-30T01:02:51;5.37;;;2.80;;
72235;SDS011;60146;52.498;13.462;2022-08-30T01:05:16;3.80;;;2.80;;
72235;SDS011;60146;52.498;13.462;2022-08-30T01:07:43;5.33;;;3.40;;
72235;SDS011;60146;52.498;13.462;2022-08-30T01:10:08;5.40;;;2.90;;
72235;SDS011;60146;52.498;13.462;2022-08-30T01:12:36;6.27;;;2.97;;
72235;SDS011;60146;52.498;13.462;2022-08-30T01:15:03;4.57;;;2.80;;
72235;SDS011;60146;52.498;13.462;2022-08-30T01:17:30;3.53;;;2.50;;
72235;SDS011;60146;52.498;13.462;2022-08-30T01:19:57;3.77;;;2.70;;
72235;SDS011;60146;52.498;13.462;2022-08-30T01:22:29;3.40;;;2.53;;
72235;SDS011;60146;52.498;13.462;2022-08-30T01:24:59;3.20;;;2.43;;
72235;SDS011;60146;52.498;13.462;2022-08-30T01:27:25;4.53;;;2.90;;
72235;SDS011;60146;52.498;13.462;2022-08-30T01:29:51;4.47;;;2.90;;
72235;SDS011;60146;52.498;13.462;2022-08-30T01:32:21;5.27;;;3.07;;
72235;SDS011;60146;52.498;13.462;2022-08-30T01:34:49;3.63;;;2.63;;
72235;SDS011;60146;52.498;13.462;2022-08-30T01:37:16;3.50;;;2.60;;
72235;SDS011;60146;52.498;13.462;2022-08-30T01:39:45;4.33;;;2.90;;
72235;SDS011;60146;52.498;13.462;2022-08-30T01:42:12;4.87;;;2.70;;
72235;SDS011;60146;52.498;13.462;2022-08-30T01:44:41;4.47;;;3.00;;
72235;SDS011;60146;52.498;13.462;2022-08-30T01:47:06;3.67;;;2.80;;
72235;SDS011;60146;52.498;13.462;2022-08-30T01:49:32;5.33;;;3.10;;
72235;SDS011;60146;52.498;13.462;2022-08-30T01:51:57;5.07;;;2.80;;
72235;SDS011;60146;52.498;13.462;2022-08-30T01:54:22;4.83;;;3.20;;
72235;SDS011;60146;52.498;13.462;2022-08-30T01:56:48;5.10;;;2.90;;
72235;SDS011;60146;52.498;13.462;2022-08-30T01:59:13;4.20;;;2.80;;
72235;SDS011;60146;52.498;13.462;2022-08-30T02:01:39;4.30;;;2.87;;
72235;SDS011;60146;52.498;13.462;2022-08-30T02:04:05;4.63;;;3.00;;
72235;SDS011;60146;52.498;13.462;2022-08-30T02:06:31;4.17;;;2.80;;
72235;SDS011;60146;52.498;13.462;2022-08-30T02:08:56;6.80;;;3.37;;
72235;SDS011;60146;52.498;13.462;2022-08-30T02:11:22;7.40;;;3.80;;
72235;SDS011;60146;52.498;13.462;2022-08-30T02:13:48;6.70;;;3.83;;
72235;SDS011;60146;52.498;13.462;2022-08-30T02:16:15;8.10;;;4.10;;
72235;SDS011;60146;52.498;13.462;2022-08-30T02:18:43;7.15;;;4.30;;
72235;SDS011;60146;52.498;13.462;2022-08-30T02:21:09;7.03;;;3.93;;
72235;SDS011;60146;52.498;13.462;2022-08-30T02:23:35;8.03;;;4.30;;
72235;SDS011;60146;52.498;13.462;2022-08-30T02:26:01;8.00;;;4.00;;
72235;SDS011;60146;52.498;13.462;2022-08-30T02:28:27;8.80;;;4.43;;
72235;SDS011;60146;52.498;13.462;2022-08-30T02:30:53;6.87;;;4.20;;
72235;SDS011;60146;52.498;13.462;2022-08-30T02:33:18;6.37;;;4.10;;
72235;SDS011;60146;52.498;13.462;2022-08-30T02:35:44;7.60;;;4.40;;
72235;SDS011;60146;52.498;13.462;2022-08-30T02:38:09;7.00;;;4.37;;
72235;SDS011;60146;52.498;13.462;2022-08-30T02:40:35;8.07;;;4.20;;
72235;SDS011;60146;52.498;13.462;2022-08-30T02:43:00;8.30;;;4.23;;
72235;SDS011;60146;52.498;13.462;2022-08-30T02:45:25;8.10;;;4.30;;
72235;SDS011;60146;52.498;13.462;2022-08-30T02:47:51;8.00;;;4.07;;
72235;SDS011;60146;52.498;13.462;2022-08-30T02:50:16;7.17;;;4.30;;
72235;SDS011;60146;52.498;13.462;2022-08-30T02:52:42;5.83;;;3.70;;
72235;SDS011;60146;52.498;13.462;2022-08-30T02:55:07;6.43;;;3.70;;
72235;SDS011;60146;52.498;13.462;2022-08-30T02:57:33;8.40;;;4.30;;
72235;SDS011;60146;52.498;13.462;2022-08-30T02:59:59;8.33;;;4.53;;
72235;SDS011;60146;52.498;13.462;2022-08-30T03:02:25;7.33;;;4.23;;
72235;SDS011;60146;52.498;13.462;2022-08-30T03:04:50;6.33;;;3.87;;
72235;SDS011;60146;52.498;13.462;2022-08-30T03:07:16;6.00;;;3.60;;
72235;SDS011;60146;52.498;13.462;2022-08-30T03:09:41;7.97;;;4.10;;
72235;SDS011;60146;52.498;13.462;2022-08-30T03:12:09;5.53;;;3.63;;
72235;SDS011;60146;52.498;13.462;2022-08-30T03:14:36;7.90;;;3.90;;
72235;SDS011;60146;52.498;13.462;2022-08-30T03:17:03;8.30;;;3.80;;
72235;SDS011;60146;52.498;13.462;2022-08-30T03:19:30;8.37;;;4.37;;
72235;SDS011;60146;52.498;13.462;2022-08-30T03:21:56;6.73;;;4.03;;
72235;SDS011;60146;52.498;13.462;2022-08-30T03:24:21;6.60;;;4.07;;
72235;SDS011;60146;52.498;13.462;2022-08-30T03:26:46;8.13;;;4.30;;
72235;SDS011;60146;52.498;13.462;2022-08-30T03:29:12;7.30;;;4.50;;
72235;SDS011;60146;52.498;13.462;2022-08-30T03:31:37;10.20;;;5.10;;
72235;SDS011;60146;52.498;13.462;2022-08-30T03:34:03;7.40;;;4.60;;
72235;SDS011;60146;52.498;13.462;2022-08-30T03:36:29;9.37;;;4.47;;
72235;SDS011;60146;52.498;13.462;2022-08-30T03:38:55;8.17;;;4.53;;
72235;SDS011;60146;52.498;13.462;2022-08-30T03:41:20;8.50;;;4.50;;
72235;SDS011;60146;52.498;13.462;2022-08-30T03:43:45;7.37;;;4.40;;
72235;SDS011;60146;52.498;13.462;2022-08-30T03:46:11;8.37;;;4.43;;
72235;SDS011;60146;52.498;13.462;2022-08-30T03:48:37;8.37;;;4.50;;
72235;SDS011;60146;52.498;13.462;2022-08-30T03:51:03;7.17;;;4.40;;
72235;SDS011;60146;52.498;13.462;2022-08-30T03:53:28;9.80;;;4.37;;
72235;SDS011;60146;52.498;13.462;2022-08-30T03:55:54;6.40;;;4.07;;
72235;SDS011;60146;52.498;13.462;2022-08-30T03:58:19;6.37;;;4.43;;
72235;SDS011;60146;52.498;13.462;2022-08-30T04:00:45;9.60;;;5.10;;
72235;SDS011;60146;52.498;13.462;2022-08-30T04:03:10;8.23;;;4.00;;
72235;SDS011;60146;52.498;13.462;2022-08-30T04:05:35;7.83;;;4.50;;
72235;SDS011;60146;52.498;13.462;2022-08-30T04:08:01;7.73;;;4.10;;
72235;SDS011;60146;52.498;13.462;2022-08-30T04:10:26;6.50;;;4.50;;
72235;SDS011;60146;52.498;13.462;2022-08-30T04:12:52;6.60;;;4.00;;
72235;SDS011;60146;52.498;13.462;2022-08-30T04:15:17;8.70;;;4.10;;
72235;SDS011;60146;52.498;13.462;2022-08-30T04:17:43;10.07;;;4.20;;
72235;SDS011;60146;52.498;13.462;2022-08-30T04:20:09;7.97;;;4.30;;
72235;SDS011;60146;52.498;13.462;2022-08-30T04:22:35;6.77;;;4.30;;
72235;SDS011;60146;52.498;13.462;2022-08-30T04:25:01;7.43;;;4.87;;
72235;SDS011;60146;52.498;13.462;2022-08-30T04:27:27;8.40;;;4.40;;
72235;SDS011;60146;52.498;13.462;2022-08-30T04:29:52;12.53;;;4.57;;
72235;SDS011;60146;52.498;13.462;2022-08-30T04:32:19;5.73;;;3.77;;
72235;SDS011;60146;52.498;13.462;2022-08-30T04:34:45;5.77;;;3.87;;
72235;SDS011;60146;52.498;13.462;2022-08-30T04:37:10;6.63;;;4.27;;
72235;SDS011;60146;52.498;13.462;2022-08-30T04:39:35;8.73;;;4.60;;
72235;SDS011;60146;52.498;13.462;2022-08-30T04:42:01;9.90;;;4.67;;
72235;SDS011;60146;52.498;13.462;2022-08-30T04:44:27;6.87;;;4.37;;
72235;SDS011;60146;52.498;13.462;2022-08-30T04:46:52;7.10;;;4.60;;
72235;SDS011;60146;52.498;13.462;2022-08-30T04:49:18;7.10;;;4.33;;
72235;SDS011;60146;52.498;13.462;2022-08-30T04:51:43;9.70;;;5.07;;
72235;SDS011;60146;52.498;13.462;2022-08-30T04:54:09;7.40;;;4.77;;
72235;SDS011;60146;52.498;13.462;2022-08-30T04:56:35;9.43;;;4.80;;
72235;SDS011;60146;52.498;13.462;2022-08-30T04:59:02;10.07;;;4.70;;
72235;SDS011;60146;52.498;13.462;2022-08-30T05:01:29;7.40;;;4.67;;
72235;SDS011;60146;52.498;13.462;2022-08-30T05:03:55;10.70;;;4.93;;
72235;SDS011;60146;52.498;13.462;2022-08-30T05:06:22;12.53;;;5.27;;
72235;SDS011;60146;52.498;13.462;2022-08-30T05:08:48;9.63;;;5.20;;
72235;SDS011;60146;52.498;13.462;2022-08-30T05:11:15;10.80;;;5.00;;
72235;SDS011;60146;52.498;13.462;2022-08-30T05:13:41;8.83;;;4.77;;
72235;SDS011;60146;52.498;13.462;2022-08-30T05:16:07;10.87;;;5.60;;
72235;SDS011;60146;52.498;13.462;2022-08-30T05:18:33;10.27;;;4.97;;
72235;SDS011;60146;52.498;13.462;2022-08-30T05:21:21;10.40;;;5.50;;
72235;SDS011;60146;52.498;13.462;2022-08-30T05:23:47;11.80;;;5.50;;
72235;SDS011;60146;52.498;13.462;2022-08-30T05:26:15;11.57;;;5.53;;
72235;SDS011;60146;52.498;13.462;2022-08-30T05:28:42;9.73;;;5.33;;
72235;SDS011;60146;52.498;13.462;2022-08-30T05:31:13;15.70;;;5.63;;
72235;SDS011;60146;52.498;13.462;2022-08-30T05:36:25;9.77;;;5.23;;
72235;SDS011;60146;52.498;13.462;2022-08-30T05:38:53;8.00;;;4.67;;
72235;SDS011;60146;52.498;13.462;2022-08-30T05:41:20;8.53;;;4.90;;
72235;SDS011;60146;52.498;13.462;2022-08-30T05:43:46;7.97;;;4.97;;
72235;SDS011;60146;52.498;13.462;2022-08-30T05:46:12;10.00;;;4.83;;
72235;SDS011;60146;52.498;13.462;2022-08-30T05:48:40;12.47;;;5.57;;
72235;SDS011;60146;52.498;13.462;2022-08-30T05:53:30;9.03;;;4.80;;
72235;SDS011;60146;52.498;13.462;2022-08-30T05:55:56;9.90;;;5.00;;
72235;SDS011;60146;52.498;13.462;2022-08-30T05:58:21;7.83;;;4.90;;
72235;SDS011;60146;52.498;13.462;2022-08-30T06:00:46;10.27;;;5.10;;
72235;SDS011;60146;52.498;13.462;2022-08-30T06:03:12;8.00;;;4.33;;
72235;SDS011;60146;52.498;13.462;2022-08-30T06:05:37;10.77;;;4.93;;
72235;SDS011;60146;52.498;13.462;2022-08-30T06:08:02;9.10;;;4.60;;
72235;SDS011;60146;52.498;13.462;2022-08-30T06:10:28;8.77;;;5.20;;
72235;SDS011;60146;52.498;13.462;2022-08-30T06:12:53;9.77;;;5.03;;
72235;SDS011;60146;52.498;13.462;2022-08-30T06:15:19;7.77;;;4.20;;
72235;SDS011;60146;52.498;13.462;2022-08-30T06:17:44;7.10;;;4.70;;
72235;SDS011;60146;52.498;13.462;2022-08-30T06:20:09;7.67;;;4.33;;
72235;SDS011;60146;52.498;13.462;2022-08-30T06:22:35;9.85;;;4.38;;
72235;SDS011;60146;52.498;13.462;2022-08-30T06:25:02;6.78;;;4.35;;
72235;SDS011;60146;52.498;13.462;2022-08-30T06:27:28;11.02;;;5.25;;
72235;SDS011;60146;52.498;13.462;2022-08-30T06:29:55;10.07;;;5.10;;
72235;SDS011;60146;52.498;13.462;2022-08-30T06:32:20;8.75;;;4.90;;
72235;SDS011;60146;52.498;13.462;2022-08-30T06:34:48;8.63;;;4.70;;
72235;SDS011;60146;52.498;13.462;2022-08-30T06:37:14;13.10;;;4.93;;
72235;SDS011;60146;52.498;13.462;2022-08-30T06:39:39;9.63;;;4.80;;
72235;SDS011;60146;52.498;13.462;2022-08-30T06:42:04;8.18;;;4.72;;
72235;SDS011;60146;52.498;13.462;2022-08-30T06:44:30;13.10;;;5.35;;
72235;SDS011;60146;52.498;13.462;2022-08-30T06:46:55;9.23;;;4.75;;
72235;SDS011;60146;52.498;13.462;2022-08-30T06:49:20;11.00;;;4.82;;
72235;SDS011;60146;52.498;13.462;2022-08-30T06:51:46;9.10;;;4.78;;
72235;SDS011;60146;52.498;13.462;2022-08-30T06:54:11;10.20;;;4.75;;
72235;SDS011;60146;52.498;13.462;2022-08-30T06:56:37;8.10;;;4.55;;
72235;SDS011;60146;52.498;13.462;2022-08-30T06:59:03;10.45;;;5.38;;
72235;SDS011;60146;52.498;13.462;2022-08-30T07:01:29;9.48;;;4.43;;
72235;SDS011;60146;52.498;13.462;2022-08-30T07:03:55;9.38;;;4.85;;
72235;SDS011;60146;52.498;13.462;2022-08-30T07:06:22;11.00;;;5.03;;
72235;SDS011;60146;52.498;13.462;2022-08-30T07:08:47;9.80;;;5.22;;
72235;SDS011;60146;52.498;13.462;2022-08-30T07:11:14;9.85;;;5.20;;
72235;SDS011;60146;52.498;13.462;2022-08-30T07:13:49;11.10;;;5.07;;
72235;SDS011;60146;52.498;13.462;2022-08-30T07:16:14;16.40;;;5.72;;
72235;SDS011;60146;52.498;13.462;2022-08-30T07:18:40;9.63;;;4.95;;
72235;SDS011;60146;52.498;13.462;2022-08-30T07:21:15;8.38;;;4.65;;
72235;SDS011;60146;52.498;13.462;2022-08-30T07:23:46;9.88;;;4.68;;
72235;SDS011;60146;52.498;13.462;2022-08-30T07:26:15;11.85;;;4.90;;
72235;SDS011;60146;52.498;13.462;2022-08-30T07:28:43;12.55;;;4.95;;
72235;SDS011;60146;52.498;13.462;2022-08-30T07:31:10;10.82;;;4.68;;
72235;SDS011;60146;52.498;13.462;2022-08-30T07:33:36;7.65;;;4.18;;
72235;SDS011;60146;52.498;13.462;2022-08-30T07:36:03;7.82;;;4.50;;
72235;SDS011;60146;52.498;13.462;2022-08-30T07:38:29;8.35;;;4.88;;
72235;SDS011;60146;52.498;13.462;2022-08-30T07:40:54;12.35;;;5.38;;
72235;SDS011;60146;52.498;13.462;2022-08-30T07:43:21;8.50;;;4.38;;
72235;SDS011;60146;52.498;13.462;2022-08-30T07:45:47;7.90;;;4.30;;
72235;SDS011;60146;52.498;13.462;2022-08-30T07:48:12;10.55;;;4.13;;
72235;SDS011;60146;52.498;13.462;2022-08-30T07:50:41;9.10;;;4.20;;
72235;SDS011;60146;52.498;13.462;2022-08-30T07:53:08;7.38;;;4.05;;
72235;SDS011;60146;52.498;13.462;2022-08-30T07:55:34;8.68;;;4.10;;
72235;SDS011;60146;52.498;13.462;2022-08-30T07:57:59;8.30;;;4.45;;
72235;SDS011;60146;52.498;13.462;2022-08-30T08:00:25;6.35;;;4.20;;
72235;SDS011;60146;52.498;13.462;2022-08-30T08:02:51;7.82;;;5.38;;
72235;SDS011;60146;52.498;13.462;2022-08-30T08:05:16;9.45;;;5.07;;
72235;SDS011;60146;52.498;13.462;2022-08-30T08:07:42;11.02;;;5.57;;
72235;SDS011;60146;52.498;13.462;2022-08-30T08:10:07;11.25;;;4.63;;
72235;SDS011;60146;52.498;13.462;2022-08-30T08:12:33;18.25;;;5.63;;
72235;SDS011;60146;52.498;13.462;2022-08-30T08:15:00;7.78;;;4.35;;
72235;SDS011;60146;52.498;13.462;2022-08-30T08:17:25;11.75;;;4.65;;
72235;SDS011;60146;52.498;13.462;2022-08-30T08:19:51;8.60;;;4.22;;
72235;SDS011;60146;52.498;13.462;2022-08-30T08:22:16;7.25;;;3.60;;
72235;SDS011;60146;52.498;13.462;2022-08-30T08:24:42;6.68;;;3.88;;
72235;SDS011;60146;52.498;13.462;2022-08-30T08:27:07;6.30;;;3.15;;
72235;SDS011;60146;52.498;13.462;2022-08-30T08:29:32;7.88;;;2.83;;
72235;SDS011;60146;52.498;13.462;2022-08-30T08:31:58;7.07;;;2.95;;
72235;SDS011;60146;52.498;13.462;2022-08-30T08:34:24;4.38;;;2.30;;
72235;SDS011;60146;52.498;13.462;2022-08-30T08:36:50;6.55;;;2.45;;
72235;SDS011;60146;52.498;13.462;2022-08-30T08:39:16;6.65;;;2.53;;
72235;SDS011;60146;52.498;13.462;2022-08-30T08:44:38;3.63;;;2.28;;
72235;SDS011;60146;52.498;13.462;2022-08-30T08:50:15;4.38;;;1.88;;
72235;SDS011;60146;52.498;13.462;2022-08-30T08:52:48;3.40;;;1.90;;
72235;SDS011;60146;52.498;13.462;2022-08-30T08:55:37;2.45;;;1.60;;
72235;SDS011;60146;52.498;13.462;2022-08-30T08:58:05;3.72;;;1.77;;
72235;SDS011;60146;52.498;13.462;2022-08-30T09:00:31;3.67;;;1.50;;
72235;SDS011;60146;52.498;13.462;2022-08-30T09:03:01;1.98;;;1.48;;
72235;SDS011;60146;52.498;13.462;2022-08-30T09:05:30;2.92;;;1.45;;
72235;SDS011;60146;52.498;13.462;2022-08-30T09:08:02;1.67;;;1.23;;
72235;SDS011;60146;52.498;13.462;2022-08-30T09:10:30;4.82;;;1.40;;
72235;SDS011;60146;52.498;13.462;2022-08-30T09:12:56;2.10;;;1.33;;
72235;SDS011;60146;52.498;13.462;2022-08-30T09:15:26;2.60;;;1.08;;
72235;SDS011;60146;52.498;13.462;2022-08-30T09:17:57;4.65;;;1.75;;
72235;SDS011;60146;52.498;13.462;2022-08-30T09:22:56;2.60;;;1.05;;
72235;SDS011;60146;52.498;13.462;2022-08-30T09:25:24;2.25;;;0.90;;
72235;SDS011;60146;52.498;13.462;2022-08-30T09:27:52;3.80;;;1.00;;
72235;SDS011;60146;52.498;13.462;2022-08-30T09:30:20;2.50;;;0.82;;
72235;SDS011;60146;52.498;13.462;2022-08-30T09:32:54;0.82;;;0.70;;
72235;SDS011;60146;52.498;13.462;2022-08-30T09:35:38;1.33;;;0.90;;
72235;SDS011;60146;52.498;13.462;2022-08-30T09:38:07;3.10;;;0.82;;
72235;SDS011;60146;52.498;13.462;2022-08-30T09:40:42;2.97;;;0.90;;
72235;SDS011;60146;52.498;13.462;2022-08-30T09:45:45;3.88;;;0.70;;
72235;SDS011;60146;52.498;13.462;2022-08-30T09:48:26;7.07;;;0.80;;
72235;SDS011;60146;52.498;13.462;2022-08-30T10:02:28;2.60;;;0.95;;
72235;SDS011;60146;52.498;13.462;2022-08-30T10:07:22;3.72;;;0.90;;
72235;SDS011;60146;52.498;13.462;2022-08-30T10:10:16;1.50;;;0.93;;
72235;SDS011;60146;52.498;13.462;2022-08-30T10:15:50;2.00;;;0.90;;
72235;SDS011;60146;52.498;13.462;2022-08-30T10:18:52;3.58;;;0.63;;
72235;SDS011;60146;52.498;13.462;2022-08-30T10:21:48;2.78;;;0.80;;
72235;SDS011;60146;52.498;13.462;2022-08-30T10:24:20;2.77;;;1.00;;
72235;SDS011;60146;52.498;13.462;2022-08-30T10:26:51;3.38;;;1.00;;
72235;SDS011;60146;52.498;13.462;2022-08-30T10:29:22;6.63;;;0.82;;
72235;SDS011;60146;52.498;13.462;2022-08-30T10:31:55;5.78;;;0.85;;
72235;SDS011;60146;52.498;13.462;2022-08-30T10:37:23;2.22;;;0.80;;
72235;SDS011;60146;52.498;13.462;2022-08-30T10:39:51;0.75;;;0.60;;
72235;SDS011;60146;52.498;13.462;2022-08-30T10:42:23;1.38;;;0.65;;
72235;SDS011;60146;52.498;13.462;2022-08-30T10:45:00;8.52;;;2.28;;
72235;SDS011;60146;52.498;13.462;2022-08-30T10:53:15;2.38;;;0.90;;
72235;SDS011;60146;52.498;13.462;2022-08-30T10:55:57;1.70;;;0.80;;
72235;SDS011;60146;52.498;13.462;2022-08-30T10:58:27;3.88;;;1.10;;
72235;SDS011;60146;52.498;13.462;2022-08-30T11:03:46;2.08;;;0.90;;
72235;SDS011;60146;52.498;13.462;2022-08-30T11:06:30;2.28;;;0.95;;
72235;SDS011;60146;52.498;13.462;2022-08-30T11:09:16;4.53;;;1.20;;
72235;SDS011;60146;52.498;13.462;2022-08-30T11:14:46;1.67;;;1.00;;
72235;SDS011;60146;52.498;13.462;2022-08-30T11:17:31;1.85;;;0.90;;
72235;SDS011;60146;52.498;13.462;2022-08-30T11:20:02;5.38;;;1.50;;
72235;SDS011;60146;52.498;13.462;2022-08-30T11:22:30;6.57;;;1.27;;
72235;SDS011;60146;52.498;13.462;2022-08-30T11:25:07;1.40;;;0.90;;
72235;SDS011;60146;52.498;13.462;2022-08-30T11:27:48;3.78;;;0.90;;
72235;SDS011;60146;52.498;13.462;2022-08-30T11:38:18;6.50;;;1.27;;
72235;SDS011;60146;52.498;13.462;2022-08-30T11:48:46;8.95;;;1.80;;
72235;SDS011;60146;52.498;13.462;2022-08-30T11:54:16;2.25;;;1.17;;
72235;SDS011;60146;52.498;13.462;2022-08-30T12:02:44;2.20;;;0.90;;
72235;SDS011;60146;52.498;13.462;2022-08-30T12:10:49;1.92;;;0.77;;
72235;SDS011;60146;52.498;13.462;2022-08-30T12:19:20;1.17;;;0.80;;
72235;SDS011;60146;52.498;13.462;2022-08-30T12:21:53;2.25;;;0.95;;
72235;SDS011;60146;52.498;13.462;2022-08-30T12:24:27;2.97;;;0.80;;
72235;SDS011;60146;52.498;13.462;2022-08-30T12:26:56;1.40;;;1.23;;
72235;SDS011;60146;52.498;13.462;2022-08-30T12:29:24;5.70;;;1.70;;
72235;SDS011;60146;52.498;13.462;2022-08-30T12:31:55;5.28;;;1.50;;
72235;SDS011;60146;52.498;13.462;2022-08-30T12:34:29;2.67;;;1.30;;
72235;SDS011;60146;52.498;13.462;2022-08-30T12:39:33;3.78;;;0.90;;
72235;SDS011;60146;52.498;13.462;2022-08-30T12:42:20;3.25;;;1.00;;
72235;SDS011;60146;52.498;13.462;2022-08-30T12:44:48;1.40;;;0.80;;
72235;SDS011;60146;52.498;13.462;2022-08-30T12:47:16;2.75;;;0.70;;
72235;SDS011;60146;52.498;13.462;2022-08-30T12:54:47;1.23;;;0.70;;
72235;SDS011;60146;52.498;13.462;2022-08-30T12:57:13;1.45;;;0.95;;
72235;SDS011;60146;52.498;13.462;2022-08-30T13:00:08;1.58;;;1.10;;
72235;SDS011;60146;52.498;13.462;2022-08-30T13:02:55;3.47;;;0.90;;
72235;SDS011;60146;52.498;13.462;2022-08-30T13:05:42;3.35;;;1.80;;
72235;SDS011;60146;52.498;13.462;2022-08-30T13:08:20;6.90;;;3.17;;
72235;SDS011;60146;52.498;13.462;2022-08-30T13:10:54;2.60;;;1.58;;
72235;SDS011;60146;52.498;13.462;2022-08-30T13:13:35;2.70;;;1.27;;
72235;SDS011;60146;52.498;13.462;2022-08-30T13:18:44;5.35;;;1.70;;
72235;SDS011;60146;52.498;13.462;2022-08-30T13:21:21;2.45;;;1.52;;
72235;SDS011;60146;52.498;13.462;2022-08-30T13:23:50;1.50;;;1.40;;
72235;SDS011;60146;52.498;13.462;2022-08-30T13:26:20;6.13;;;2.00;;
72235;SDS011;60146;52.498;13.462;2022-08-30T13:28:47;6.57;;;2.03;;
72235;SDS011;60146;52.498;13.462;2022-08-30T13:31:17;2.63;;;1.40;;
72235;SDS011;60146;52.498;13.462;2022-08-30T13:33:43;1.40;;;1.27;;
72235;SDS011;60146;52.498;13.462;2022-08-30T13:38:39;1.70;;;1.20;;
72235;SDS011;60146;52.498;13.462;2022-08-30T13:41:05;1.67;;;1.17;;
72235;SDS011;60146;52.498;13.462;2022-08-30T13:43:31;4.05;;;1.40;;
72235;SDS011;60146;52.498;13.462;2022-08-30T13:45:56;1.50;;;1.25;;
72235;SDS011;60146;52.498;13.462;2022-08-30T13:48:22;1.98;;;1.45;;
72235;SDS011;60146;52.498;13.462;2022-08-30T13:50:47;2.67;;;1.40;;
72235;SDS011;60146;52.498;13.462;2022-08-30T13:53:13;3.17;;;1.58;;
72235;SDS011;60146;52.498;13.462;2022-08-30T13:55:38;2.42;;;1.33;;
72235;SDS011;60146;52.498;13.462;2022-08-30T13:58:05;3.55;;;1.55;;
72235;SDS011;60146;52.498;13.462;2022-08-30T14:00:30;3.10;;;1.60;;
72235;SDS011;60146;52.498;13.462;2022-08-30T14:02:58;2.65;;;1.50;;
72235;SDS011;60146;52.498;13.462;2022-08-30T14:05:27;2.33;;;1.48;;
72235;SDS011;60146;52.498;13.462;2022-08-30T14:07:55;1.45;;;1.30;;
72235;SDS011;60146;52.498;13.462;2022-08-30T14:10:22;2.50;;;1.35;;
72235;SDS011;60146;52.498;13.462;2022-08-30T14:12:49;2.90;;;1.52;;
72235;SDS011;60146;52.498;13.462;2022-08-30T14:15:15;4.72;;;1.80;;
72235;SDS011;60146;52.498;13.462;2022-08-30T14:17:40;2.70;;;1.30;;
72235;SDS011;60146;52.498;13.462;2022-08-30T14:20:05;4.50;;;1.70;;
72235;SDS011;60146;52.498;13.462;2022-08-30T14:22:31;2.35;;;1.48;;
72235;SDS011;60146;52.498;13.462;2022-08-30T14:24:57;5.25;;;1.70;;
72235;SDS011;60146;52.498;13.462;2022-08-30T14:27:25;3.45;;;1.98;;
72235;SDS011;60146;52.498;13.462;2022-08-30T14:29:51;4.28;;;1.83;;
72235;SDS011;60146;52.498;13.462;2022-08-30T14:32:16;4.32;;;1.80;;
72235;SDS011;60146;52.498;13.462;2022-08-30T14:34:42;2.50;;;1.88;;
72235;SDS011;60146;52.498;13.462;2022-08-30T14:39:35;4.03;;;1.83;;
72235;SDS011;60146;52.498;13.462;2022-08-30T14:42:00;4.38;;;2.00;;
72235;SDS011;60146;52.498;13.462;2022-08-30T14:44:26;3.20;;;1.77;;
72235;SDS011;60146;52.498;13.462;2022-08-30T14:46:51;2.45;;;1.75;;
72235;SDS011;60146;52.498;13.462;2022-08-30T14:49:17;4.95;;;1.80;;
72235;SDS011;60146;52.498;13.462;2022-08-30T14:51:44;4.95;;;1.80;;
72235;SDS011;60146;52.498;13.462;2022-08-30T14:54:10;3.03;;;1.95;;
72235;SDS011;60146;52.498;13.462;2022-08-30T14:56:36;4.18;;;1.90;;
72235;SDS011;60146;52.498;13.462;2022-08-30T14:59:03;5.75;;;2.08;;
72235;SDS011;60146;52.498;13.462;2022-08-30T15:01:28;2.90;;;1.80;;
72235;SDS011;60146;52.498;13.462;2022-08-30T15:03:54;2.40;;;1.70;;
72235;SDS011;60146;52.498;13.462;2022-08-30T15:06:21;1.98;;;1.67;;
72235;SDS011;60146;52.498;13.462;2022-08-30T15:08:46;4.40;;;2.13;;
72235;SDS011;60146;52.498;13.462;2022-08-30T15:11:13;3.70;;;1.70;;
72235;SDS011;60146;52.498;13.462;2022-08-30T15:13:43;3.83;;;2.08;;
72235;SDS011;60146;52.498;13.462;2022-08-30T15:16:14;3.53;;;1.93;;
72235;SDS011;60146;52.498;13.462;2022-08-30T15:18:41;6.45;;;2.10;;
72235;SDS011;60146;52.498;13.462;2022-08-30T15:21:07;2.10;;;1.60;;
72235;SDS011;60146;52.498;13.462;2022-08-30T15:23:33;4.65;;;2.10;;
72235;SDS011;60146;52.498;13.462;2022-08-30T15:26:01;4.50;;;1.85;;
72235;SDS011;60146;52.498;13.462;2022-08-30T15:28:27;4.32;;;1.90;;
72235;SDS011;60146;52.498;13.462;2022-08-30T15:30:52;3.08;;;1.80;;
72235;SDS011;60146;52.498;13.462;2022-08-30T15:33:19;4.35;;;2.25;;
72235;SDS011;60146;52.498;13.462;2022-08-30T15:35:45;3.30;;;2.00;;
72235;SDS011;60146;52.498;13.462;2022-08-30T15:38:10;5.43;;;2.17;;
72235;SDS011;60146;52.498;13.462;2022-08-30T15:40:35;4.50;;;2.00;;
72235;SDS011;60146;52.498;13.462;2022-08-30T15:43:02;7.45;;;1.98;;
72235;SDS011;60146;52.498;13.462;2022-08-30T15:45:27;5.72;;;2.15;;
72235;SDS011;60146;52.498;13.462;2022-08-30T15:47:53;2.67;;;1.70;;
72235;SDS011;60146;52.498;13.462;2022-08-30T15:50:18;3.65;;;2.30;;
72235;SDS011;60146;52.498;13.462;2022-08-30T15:52:44;3.38;;;2.15;;
72235;SDS011;60146;52.498;13.462;2022-08-30T15:55:09;3.67;;;2.05;;
72235;SDS011;60146;52.498;13.462;2022-08-30T15:57:38;2.53;;;1.83;;
72235;SDS011;60146;52.498;13.462;2022-08-30T16:00:04;3.88;;;2.33;;
72235;SDS011;60146;52.498;13.462;2022-08-30T16:02:31;4.72;;;2.00;;
72235;SDS011;60146;52.498;13.462;2022-08-30T16:04:57;3.60;;;2.33;;
72235;SDS011;60146;52.498;13.462;2022-08-30T16:07:22;6.03;;;1.95;;
72235;SDS011;60146;52.498;13.462;2022-08-30T16:09:57;4.50;;;2.15;;
72235;SDS011;60146;52.498;13.462;2022-08-30T16:12:22;2.17;;;1.75;;
72235;SDS011;60146;52.498;13.462;2022-08-30T16:14:47;2.13;;;1.83;;
72235;SDS011;60146;52.498;13.462;2022-08-30T16:17:13;3.13;;;1.60;;